Time;durP1;ratioP1;P1;durP2;ratioP2;P2;SDS_P1;SDS_P2;PMS_P1;PMS_P2;Temp;Humidity;BMP_temperature;BMP_pressure;BME280_temperature;BME280_humidity;BME280_pressure;Samples;Min_cycle;Max_cycle;Signal;HPM_P1;HPM_P2
2022/09/02 00:01:16;;;;;;;11.98;1.30;;;43.10;36.20;;;;;;4994798;28;20022;-62
2022/09/02 00:03:43;;;;;;;6.57;1.30;;;43.00;36.30;;;;;;5012248;28;20531;-61
2022/09/02 00:06:10;;;;;;;13.02;1.15;;;43.00;36.20;;;;;;5012238;28;20392;-63
2022/09/02 00:08:37;;;;;;;6.78;1.30;;;43.00;36.50;;;;;;5011212;28;20041;-63
2022/09/02 00:11:04;;;;;;;7.68;1.02;;;42.90;36.20;;;;;;5009997;28;20032;-62
2022/09/02 00:13:32;;;;;;;8.30;1.00;;;42.80;36.00;;;;;;4995708;28;20092;-62
2022/09/02 00:15:59;;;;;;;7.70;0.82;;;42.90;35.90;;;;;;4994669;28;20392;-62
2022/09/02 00:18:26;;;;;;;12.30;1.05;;;42.80;36.00;;;;;;4996085;28;20504;-61
2022/09/02 00:20:53;;;;;;;12.38;1.42;;;42.70;36.40;;;;;;4995327;28;20484;-63
2022/09/02 00:23:19;;;;;;;8.30;1.20;;;42.60;36.10;;;;;;5012034;28;20046;-63
2022/09/02 00:25:46;;;;;;;6.95;1.20;;;42.60;36.50;;;;;;4994517;28;20036;-62
2022/09/02 00:28:14;;;;;;;7.47;1.25;;;42.50;36.50;;;;;;4994032;28;20033;-62
2022/09/02 00:30:41;;;;;;;10.70;1.08;;;42.40;36.80;;;;;;5010460;28;20041;-63
2022/09/02 00:33:09;;;;;;;4.72;1.20;;;42.30;36.80;;;;;;4978102;28;20033;-63
2022/09/02 00:35:36;;;;;;;7.53;1.40;;;42.40;36.70;;;;;;4994257;28;20037;-63
2022/09/02 00:38:04;;;;;;;5.85;1.10;;;42.40;37.10;;;;;;4992563;28;20705;-62
2022/09/02 00:40:31;;;;;;;8.32;1.10;;;42.30;37.40;;;;;;4993362;28;20080;-63
2022/09/02 00:42:57;;;;;;;7.82;1.30;;;42.30;37.60;;;;;;5010066;28;20087;-64
2022/09/02 00:45:24;;;;;;;9.70;1.40;;;42.10;37.60;;;;;;5010631;28;20034;-63
2022/09/02 00:47:50;;;;;;;8.70;1.42;;;42.10;37.50;;;;;;4994308;28;20083;-63
2022/09/02 00:50:26;;;;;;;7.60;1.40;;;42.00;37.70;;;;;;4993898;28;20026;-62
2022/09/02 00:52:57;;;;;;;9.70;1.40;;;42.00;37.80;;;;;;4993830;28;20033;-63
2022/09/02 00:55:28;;;;;;;5.38;1.17;;;41.90;37.90;;;;;;4994030;28;20034;-62
2022/09/02 00:58:19;;;;;;;18.98;1.63;;;41.90;38.20;;;;;;5008878;28;20029;-63
2022/09/02 01:00:48;;;;;;;11.10;1.48;;;41.80;38.40;;;;;;4993172;28;20022;-62
2022/09/02 01:03:19;;;;;;;9.98;1.70;;;41.60;38.80;;;;;;4992285;28;20022;-63
2022/09/02 01:05:48;;;;;;;5.38;1.20;;;41.50;39.10;;;;;;4993167;28;20370;-64
2022/09/02 01:08:23;;;;;;;10.40;1.15;;;41.50;39.10;;;;;;5011060;28;20080;-64
2022/09/02 01:10:54;;;;;;;14.02;1.67;;;41.40;38.70;;;;;;4994249;28;20030;-63
2022/09/02 01:13:24;;;;;;;13.93;1.52;;;41.30;38.50;;;;;;4993845;28;20053;-63
2022/09/02 01:16:21;;;;;;;11.77;1.73;;;41.30;38.60;;;;;;5010036;28;20483;-63
2022/09/02 01:18:49;;;;;;;;;;;41.20;38.40;;;;;;4996507;28;20037;-62
2022/09/02 01:21:16;;;;;;;9.40;1.33;;;41.10;38.90;;;;;;4993428;28;19932;-64
2022/09/02 01:23:42;;;;;;;6.45;0.90;;;40.90;39.40;;;;;;4978486;28;20034;-66
2022/09/02 01:26:09;;;;;;;11.05;1.30;;;40.90;39.40;;;;;;5010696;28;20026;-62
2022/09/02 01:28:36;;;;;;;9.15;1.67;;;40.80;39.70;;;;;;4993889;28;20033;-62
2022/09/02 01:31:02;;;;;;;9.38;1.25;;;40.80;40.10;;;;;;4994570;28;20041;-62
2022/09/02 01:33:29;;;;;;;4.82;1.05;;;40.70;40.20;;;;;;4993911;28;20395;-62
2022/09/02 01:35:56;;;;;;;7.90;1.30;;;40.60;40.30;;;;;;4992624;28;20100;-62
2022/09/02 01:38:23;;;;;;;9.07;1.50;;;40.50;40.30;;;;;;4994096;28;20620;-63
2022/09/02 01:40:51;;;;;;;6.97;1.15;;;40.40;40.40;;;;;;4992046;28;20095;-62
2022/09/02 01:43:24;;;;;;;6.90;0.90;;;40.40;40.50;;;;;;5008870;28;20022;-60
2022/09/02 01:45:53;;;;;;;6.22;1.10;;;40.30;40.80;;;;;;4998774;28;20025;-61
2022/09/02 01:48:20;;;;;;;10.73;1.00;;;40.30;40.70;;;;;;4992296;28;20045;-62
2022/09/02 01:50:50;;;;;;;10.15;1.05;;;40.20;41.10;;;;;;4977621;28;20029;-60
2022/09/02 01:53:17;;;;;;;5.35;1.10;;;40.10;41.40;;;;;;4994289;28;20041;-62
2022/09/02 01:55:43;;;;;;;7.75;1.48;;;40.00;42.10;;;;;;4993051;28;20053;-64
2022/09/02 01:58:10;;;;;;;8.02;1.65;;;40.00;41.90;;;;;;4992786;28;20053;-60
2022/09/02 02:00:36;;;;;;;8.52;1.45;;;39.90;42.50;;;;;;4992861;28;20464;-62
2022/09/02 02:03:03;;;;;;;15.13;1.65;;;39.80;42.80;;;;;;4991899;28;20033;-61
2022/09/02 02:05:30;;;;;;;12.43;1.67;;;39.70;42.90;;;;;;4992660;28;20388;-63
2022/09/02 02:07:57;;;;;;;7.57;1.60;;;39.60;43.10;;;;;;4976257;28;20026;-61
2022/09/02 02:10:24;;;;;;;13.93;2.22;;;39.60;43.40;;;;;;4976548;28;20053;-62
2022/09/02 02:12:51;;;;;;;16.45;2.75;;;39.60;43.60;;;;;;5010424;28;20030;-62
2022/09/02 02:15:18;;;;;;;11.18;2.17;;;39.50;43.80;;;;;;4992787;28;20044;-62
2022/09/02 02:17:45;;;;;;;13.38;2.53;;;39.40;44.00;;;;;;4997934;28;20026;-63
2022/09/02 02:20:14;;;;;;;18.08;2.72;;;39.30;44.10;;;;;;4992714;28;20032;-62
2022/09/02 02:22:42;;;;;;;13.82;2.10;;;39.30;44.20;;;;;;4973240;28;20062;-59
2022/09/02 02:25:10;;;;;;;21.13;2.35;;;39.20;44.00;;;;;;4988844;28;20041;-64
2022/09/02 02:27:36;;;;;;;20.60;2.33;;;39.10;44.30;;;;;;4989662;28;20117;-62
2022/09/02 02:30:05;;;;;;;15.48;2.28;;;39.10;44.40;;;;;;4987568;28;20478;-63
2022/09/02 02:32:31;;;;;;;15.73;2.60;;;39.00;44.20;;;;;;4990375;28;20030;-62
2022/09/02 02:34:58;;;;;;;16.13;2.15;;;38.90;44.20;;;;;;4956783;28;20488;-63
2022/09/02 02:37:25;;;;;;;13.20;2.00;;;38.90;44.00;;;;;;4987268;28;20034;-62
2022/09/02 02:39:51;;;;;;;11.18;1.77;;;38.80;44.00;;;;;;4990291;28;20022;-62
2022/09/02 02:42:19;;;;;;;19.75;2.25;;;38.70;44.00;;;;;;5005033;28;20042;-62
2022/09/02 02:44:45;;;;;;;16.27;2.03;;;38.70;44.10;;;;;;4988119;28;20026;-62
2022/09/02 02:47:11;;;;;;;22.92;2.38;;;38.60;44.20;;;;;;4989828;28;20509;-62
2022/09/02 02:49:42;;;;;;;14.48;2.03;;;38.50;44.20;;;;;;4988916;28;20033;-62
2022/09/02 02:52:11;;;;;;;17.85;2.17;;;38.50;44.30;;;;;;4986295;28;20112;-62
2022/09/02 02:54:38;;;;;;;20.85;2.80;;;38.50;44.40;;;;;;4989629;28;20022;-62
2022/09/02 02:57:05;;;;;;;17.85;2.88;;;38.50;44.70;;;;;;4988823;28;20026;-63
2022/09/02 02:59:32;;;;;;;18.27;2.88;;;38.40;44.80;;;;;;4988087;28;20433;-65
2022/09/02 03:01:58;;;;;;;22.25;3.30;;;38.30;45.10;;;;;;4992161;28;20089;-62
2022/09/02 03:04:25;;;;;;;26.80;3.20;;;38.30;45.20;;;;;;4988499;28;20069;-62
2022/09/02 03:06:51;;;;;;;27.27;3.28;;;38.30;45.40;;;;;;4988057;28;20137;-63
2022/09/02 03:09:19;;;;;;;23.80;2.95;;;38.30;45.50;;;;;;4989582;28;20034;-65
2022/09/02 03:11:46;;;;;;;30.02;3.40;;;38.30;45.60;;;;;;4986384;28;20022;-64
2022/09/02 03:14:13;;;;;;;30.98;3.47;;;38.20;45.60;;;;;;5001337;28;20038;-64
2022/09/02 03:16:39;;;;;;;25.50;2.35;;;38.20;45.70;;;;;;4991355;28;20023;-63
2022/09/02 03:19:06;;;;;;;20.35;2.22;;;38.10;45.50;;;;;;5000063;28;20034;-63
2022/09/02 03:21:33;;;;;;;22.65;2.58;;;38.10;45.60;;;;;;4994857;28;20384;-65
2022/09/02 03:23:59;;;;;;;26.05;3.10;;;38.00;45.50;;;;;;5012566;28;20018;-64
2022/09/02 03:26:25;;;;;;;22.48;3.00;;;38.00;45.20;;;;;;4995174;28;20034;-62
2022/09/02 03:28:55;;;;;;;33.38;3.33;;;38.00;45.10;;;;;;4994564;28;20030;-62
2022/09/02 03:31:24;;;;;;;25.02;2.60;;;37.90;44.80;;;;;;4994612;28;20387;-63
2022/09/02 03:33:50;;;;;;;24.42;2.63;;;37.80;44.90;;;;;;4995437;28;20132;-63
2022/09/02 03:36:25;;;;;;;23.60;2.60;;;37.80;44.90;;;;;;5011857;28;20040;-64
2022/09/02 03:38:52;;;;;;;23.40;3.05;;;37.80;44.90;;;;;;4994378;28;20022;-62
2022/09/02 03:41:19;;;;;;;21.17;3.45;;;37.70;45.10;;;;;;4978116;28;20053;-62
2022/09/02 03:43:46;;;;;;;22.33;2.70;;;37.70;45.20;;;;;;4995294;28;20467;-63
2022/09/02 03:46:12;;;;;;;25.33;3.85;;;37.60;45.20;;;;;;5011802;28;20096;-64
2022/09/02 03:48:39;;;;;;;24.73;2.95;;;37.60;45.10;;;;;;4995262;28;20029;-62
2022/09/02 03:51:07;;;;;;;30.05;3.75;;;37.60;45.30;;;;;;4978869;28;20070;-64
2022/09/02 03:53:33;;;;;;;19.70;2.63;;;37.60;45.30;;;;;;5012439;28;20036;-65
2022/09/02 03:56:10;;;;;;;27.25;2.78;;;37.60;45.20;;;;;;5011898;28;20037;-62
2022/09/02 03:58:37;;;;;;;17.70;2.15;;;37.50;45.00;;;;;;5008105;28;20022;-63
2022/09/02 04:01:04;;;;;;;19.25;2.38;;;37.50;45.00;;;;;;4993572;28;20129;-64
2022/09/02 04:03:30;;;;;;;15.90;2.45;;;37.50;45.00;;;;;;5011918;28;20025;-63
2022/09/02 04:05:57;;;;;;;20.02;2.60;;;37.50;44.80;;;;;;4994777;28;20032;-63
2022/09/02 04:08:24;;;;;;;22.52;2.40;;;37.50;44.50;;;;;;4994744;28;20054;-64
2022/09/02 04:10:51;;;;;;;13.13;2.30;;;37.50;44.20;;;;;;4995138;28;20022;-63
2022/09/02 04:13:18;;;;;;;22.88;2.40;;;37.50;44.40;;;;;;4994727;28;20026;-64
2022/09/02 04:15:47;;;;;;;20.90;2.28;;;37.40;44.20;;;;;;4993884;28;20026;-62
2022/09/02 04:18:16;;;;;;;17.40;1.85;;;37.40;43.90;;;;;;4993560;28;20080;-63
2022/09/02 04:20:42;;;;;;;23.15;3.20;;;37.40;43.90;;;;;;4994425;28;20180;-63
2022/09/02 04:23:09;;;;;;;27.55;3.90;;;37.40;44.00;;;;;;4993534;28;20069;-63
2022/09/02 04:25:43;;;;;;;17.80;3.20;;;37.40;44.00;;;;;;4994578;28;20052;-62
2022/09/02 04:28:11;;;;;;;25.02;3.28;;;37.40;43.90;;;;;;4976491;28;20122;-61
2022/09/02 04:30:39;;;;;;;28.40;3.60;;;37.40;44.00;;;;;;5008941;28;20060;-62
2022/09/02 04:33:05;;;;;;;20.27;4.80;;;37.40;44.00;;;;;;4994070;28;20463;-62
2022/09/02 04:35:32;;;;;;;24.52;3.85;;;37.40;44.10;;;;;;4993129;28;20030;-61
2022/09/02 04:37:58;;;;;;;22.15;4.07;;;37.40;44.40;;;;;;5009625;28;20121;-62
2022/09/02 04:40:25;;;;;;;24.90;4.30;;;37.40;44.70;;;;;;5010646;28;20033;-62
2022/09/02 04:42:52;;;;;;;24.30;5.05;;;37.30;44.90;;;;;;5010584;28;20018;-61
2022/09/02 04:45:19;;;;;;;24.17;5.03;;;37.30;45.30;;;;;;4992765;28;20022;-62
2022/09/02 04:47:45;;;;;;;23.35;5.55;;;37.30;45.50;;;;;;5011055;28;20034;-62
2022/09/02 04:50:11;;;;;;;19.50;4.22;;;37.20;45.60;;;;;;4992629;28;20034;-61
2022/09/02 04:52:38;;;;;;;27.92;4.75;;;37.20;45.70;;;;;;4993286;28;21551;-63
2022/09/02 04:55:05;;;;;;;27.55;4.43;;;37.20;45.80;;;;;;5010777;28;20484;-62
2022/09/02 04:57:33;;;;;;;21.27;4.57;;;37.10;45.40;;;;;;4975635;28;20339;-62
2022/09/02 05:00:01;;;;;;;24.85;4.10;;;37.00;46.00;;;;;;4991696;28;20033;-62
2022/09/02 05:02:28;;;;;;;21.98;4.32;;;37.00;46.10;;;;;;4994587;28;20113;-62
2022/09/02 05:04:54;;;;;;;31.70;4.68;;;37.00;46.20;;;;;;5008717;28;20545;-62
2022/09/02 05:07:20;;;;;;;25.95;3.85;;;37.00;46.20;;;;;;5010434;28;20358;-62
2022/09/02 05:09:47;;;;;;;26.90;4.15;;;37.00;46.20;;;;;;4993084;28;20022;-62
2022/09/02 05:12:14;;;;;;;30.50;4.40;;;36.90;46.20;;;;;;4992756;28;20056;-64
2022/09/02 05:14:40;;;;;;;19.00;3.97;;;36.90;46.20;;;;;;4990461;28;20022;-61
2022/09/02 05:17:07;;;;;;;30.02;3.85;;;36.90;46.40;;;;;;4989563;28;20069;-61
2022/09/02 05:19:34;;;;;;;32.33;4.40;;;36.80;46.30;;;;;;4993784;28;20030;-62
2022/09/02 05:22:01;;;;;;;48.67;4.60;;;36.80;46.30;;;;;;4992873;28;20061;-61
2022/09/02 05:24:28;;;;;;;34.25;4.47;;;36.80;46.50;;;;;;4993755;28;20029;-61
2022/09/02 05:26:54;;;;;;;32.65;3.70;;;36.80;46.50;;;;;;5009763;28;20116;-61
2022/09/02 05:29:22;;;;;;;26.15;3.75;;;36.80;46.50;;;;;;5009890;28;20503;-62
2022/09/02 05:31:49;;;;;;;26.75;4.05;;;36.70;46.40;;;;;;5009526;28;20030;-61
2022/09/02 05:34:15;;;;;;;34.67;4.15;;;36.70;46.40;;;;;;5009718;28;20041;-62
2022/09/02 05:36:42;;;;;;;29.23;3.00;;;36.70;46.40;;;;;;4992672;28;20430;-61
2022/09/02 05:39:08;;;;;;;23.98;3.15;;;36.70;46.60;;;;;;4992454;28;20018;-61
2022/09/02 05:41:35;;;;;;;27.25;3.33;;;36.70;46.70;;;;;;4992598;28;20075;-61
2022/09/02 05:44:03;;;;;;;29.83;2.80;;;36.60;46.70;;;;;;4992548;28;20025;-62
2022/09/02 05:46:30;;;;;;;22.63;3.20;;;36.60;46.80;;;;;;4992775;28;20117;-64
2022/09/02 05:49:16;;;;;;;22.48;3.10;;;36.60;46.80;;;;;;5009197;28;20030;-63
2022/09/02 05:51:53;;;;;;;17.40;2.70;;;36.60;46.80;;;;;;5009786;28;20036;-63
2022/09/02 05:54:23;;;;;;;21.58;3.20;;;36.60;46.80;;;;;;5010131;28;20045;-62
2022/09/02 05:56:54;;;;;;;23.08;3.70;;;36.50;46.90;;;;;;5009328;28;20061;-62
2022/09/02 05:59:22;;;;;;;16.40;3.80;;;36.50;46.90;;;;;;4991845;28;20522;-64
2022/09/02 06:01:49;;;;;;;36.13;4.55;;;36.50;47.20;;;;;;5008779;28;20022;-62
2022/09/02 06:04:16;;;;;;;21.52;4.28;;;36.50;47.10;;;;;;4993278;28;20113;-63
2022/09/02 06:06:43;;;;;;;23.00;3.97;;;36.40;47.10;;;;;;5008505;28;20029;-62
2022/09/02 06:09:12;;;;;;;27.40;3.72;;;36.50;47.00;;;;;;4976015;28;20419;-62
2022/09/02 06:11:43;;;;;;;23.58;4.07;;;36.50;47.00;;;;;;4992078;28;20026;-64
2022/09/02 06:14:12;;;;;;;26.50;3.90;;;36.40;47.00;;;;;;4975572;28;20030;-62
2022/09/02 06:16:41;;;;;;;25.73;3.88;;;36.40;47.10;;;;;;4990025;28;20046;-62
2022/09/02 06:19:07;;;;;;;27.15;3.92;;;36.40;47.20;;;;;;4993566;28;20026;-63
2022/09/02 06:21:35;;;;;;;29.05;4.38;;;36.30;47.20;;;;;;4997633;28;20030;-62
2022/09/02 06:24:05;;;;;;;20.35;3.42;;;36.30;47.60;;;;;;5010315;28;20072;-62
2022/09/02 06:26:31;;;;;;;16.10;2.70;;;36.30;48.50;;;;;;4991451;28;20041;-62
2022/09/02 06:28:58;;;;;;;17.13;2.60;;;36.20;48.10;;;;;;5009481;28;20423;-62
2022/09/02 06:31:24;;;;;;;14.95;2.60;;;36.20;48.50;;;;;;4991122;28;20494;-62
2022/09/02 06:33:53;;;;;;;22.15;2.22;;;36.10;48.80;;;;;;4991611;28;20036;-63
2022/09/02 06:36:21;;;;;;;49.22;3.10;;;36.00;50.30;;;;;;4991178;28;20064;-61
2022/09/02 06:38:49;;;;;;;13.70;2.00;;;35.80;51.20;;;;;;4990147;28;20029;-62
2022/09/02 06:41:19;;;;;;;19.45;2.35;;;35.70;51.70;;;;;;5008637;28;20044;-62
2022/09/02 06:43:45;;;;;;;13.27;1.98;;;35.50;52.60;;;;;;4975163;28;20025;-62
2022/09/02 06:46:24;;;;;;;13.40;2.10;;;35.40;53.10;;;;;;4973163;28;20034;-62
2022/09/02 06:48:51;;;;;;;12.27;2.13;;;35.30;54.30;;;;;;5008854;28;20034;-63
2022/09/02 06:51:25;;;;;;;17.30;2.47;;;35.20;55.10;;;;;;5006917;28;20029;-64
2022/09/02 06:53:51;;;;;;;16.38;2.45;;;35.10;56.50;;;;;;4975246;28;20436;-63
2022/09/02 06:56:18;;;;;;;13.77;2.13;;;35.00;57.80;;;;;;4990832;28;20088;-64
2022/09/02 06:58:44;;;;;;;25.15;2.78;;;34.90;58.80;;;;;;4991343;28;20160;-61
2022/09/02 07:01:18;;;;;;;10.90;2.45;;;34.80;62.90;;;;;;4990451;28;20072;-63
2022/09/02 07:06:35;;;;;;;19.88;2.30;;;34.60;65.50;;;;;;5007631;28;20095;-63
2022/09/02 07:09:04;;;;;;;14.50;2.03;;;34.50;68.40;;;;;;4989732;28;20033;-64
2022/09/02 07:11:31;;;;;;;11.75;2.22;;;34.40;69.80;;;;;;4991564;28;20022;-62
2022/09/02 07:14:00;;;;;;;6.78;1.85;;;34.40;71.00;;;;;;5007775;28;20444;-62
2022/09/02 07:16:29;;;;;;;12.50;2.45;;;34.30;72.40;;;;;;4974470;28;20483;-62
2022/09/02 07:18:56;;;;;;;14.07;2.65;;;34.20;73.70;;;;;;4974052;28;20625;-64
2022/09/02 07:21:23;;;;;;;18.77;2.83;;;34.10;74.60;;;;;;4991683;28;20057;-64
2022/09/02 07:23:49;;;;;;;22.38;2.28;;;34.00;75.80;;;;;;4990026;28;20124;-62
2022/09/02 07:26:17;;;;;;;12.55;2.22;;;34.00;76.30;;;;;;4991523;28;20117;-64
2022/09/02 07:28:43;;;;;;;20.63;2.35;;;33.90;76.40;;;;;;5009155;28;20057;-62
2022/09/02 07:31:11;;;;;;;14.27;2.85;;;33.90;76.70;;;;;;4991043;28;20030;-62
2022/09/02 07:33:38;;;;;;;22.95;2.58;;;33.90;77.00;;;;;;5008028;28;20018;-62
2022/09/02 07:36:05;;;;;;;18.35;2.53;;;33.90;76.90;;;;;;5008971;28;20029;-64
2022/09/02 07:38:33;;;;;;;19.52;3.13;;;33.80;76.70;;;;;;4975571;28;20022;-62
2022/09/02 07:41:00;;;;;;;20.40;2.90;;;33.70;76.60;;;;;;4990146;28;20018;-62
2022/09/02 07:43:30;;;;;;;21.25;2.92;;;33.70;76.20;;;;;;5008643;28;20052;-62
2022/09/02 07:45:57;;;;;;;19.85;2.75;;;33.70;75.70;;;;;;4991159;28;20065;-62
2022/09/02 07:48:24;;;;;;;22.73;2.80;;;33.70;75.50;;;;;;4990493;28;20400;-64
2022/09/02 07:50:51;;;;;;;17.30;2.85;;;33.70;75.40;;;;;;4991377;28;20030;-64
2022/09/02 07:53:19;;;;;;;19.30;2.30;;;33.70;75.10;;;;;;4991111;28;20049;-64
2022/09/02 07:55:46;;;;;;;14.55;2.25;;;33.60;74.80;;;;;;4975384;28;20054;-65
2022/09/02 07:58:15;;;;;;;20.23;2.60;;;33.60;74.60;;;;;;5009069;28;20034;-65
2022/09/02 08:00:42;;;;;;;22.25;3.30;;;33.60;74.60;;;;;;4990716;28;20065;-64
2022/09/02 08:03:10;;;;;;;27.75;2.38;;;33.60;74.80;;;;;;5014984;28;20129;-66
2022/09/02 08:05:38;;;;;;;34.92;2.97;;;33.50;74.50;;;;;;4993834;28;20092;-64
2022/09/02 08:08:05;;;;;;;27.15;2.63;;;33.50;74.60;;;;;;4994427;28;20112;-64
2022/09/02 08:10:32;;;;;;;20.33;2.58;;;33.50;74.40;;;;;;4994174;28;20026;-64
2022/09/02 08:13:00;;;;;;;23.05;2.65;;;33.50;74.50;;;;;;4993948;28;20037;-65
2022/09/02 08:15:27;;;;;;;23.38;2.53;;;33.50;74.90;;;;;;4993704;28;20049;-66
2022/09/02 08:17:55;;;;;;;17.17;2.50;;;33.40;75.50;;;;;;4995323;28;20388;-65
2022/09/02 08:20:22;;;;;;;16.38;2.20;;;33.40;76.20;;;;;;4992779;28;21575;-65
2022/09/02 08:22:49;;;;;;;17.83;2.33;;;33.40;76.70;;;;;;4994741;28;20034;-63
2022/09/02 08:25:17;;;;;;;21.35;2.38;;;33.30;77.20;;;;;;4994737;28;20030;-64
2022/09/02 08:27:44;;;;;;;9.45;2.67;;;33.30;77.70;;;;;;4994180;28;20037;-64
2022/09/02 08:30:11;;;;;;;17.05;2.83;;;33.30;78.30;;;;;;5009588;28;20046;-65
2022/09/02 08:32:39;;;;;;;16.83;2.47;;;33.30;79.00;;;;;;5010653;28;20029;-65
2022/09/02 08:35:08;;;;;;;17.13;2.75;;;33.20;79.60;;;;;;5011196;28;20275;-64
2022/09/02 08:37:34;;;;;;;23.30;2.80;;;33.20;80.30;;;;;;5010913;28;20487;-64
2022/09/02 08:40:04;;;;;;;16.30;2.60;;;33.20;81.00;;;;;;4994033;28;20030;-65
2022/09/02 08:42:42;;;;;;;19.23;2.92;;;33.20;81.60;;;;;;4993650;28;20049;-66
2022/09/02 08:45:36;;;;;;;16.40;2.78;;;33.10;82.30;;;;;;4993501;28;20488;-64
2022/09/02 08:48:26;;;;;;;21.95;3.10;;;33.10;83.20;;;;;;4993906;28;20488;-64
2022/09/02 08:51:02;;;;;;;24.73;3.40;;;33.00;83.90;;;;;;4978888;28;20080;-64
2022/09/02 08:53:40;;;;;;;;;;;33.00;84.70;;;;;;4994124;28;20036;-65
2022/09/02 08:56:11;;;;;;;25.63;2.83;;;32.90;85.40;;;;;;5010832;28;20306;-65
2022/09/02 08:58:45;;;;;;;16.60;3.13;;;32.90;85.90;;;;;;5008861;28;20353;-65
2022/09/02 09:01:15;;;;;;;16.00;2.97;;;32.90;86.40;;;;;;4992480;28;20352;-65
2022/09/02 09:04:03;;;;;;;16.02;2.60;;;32.90;86.80;;;;;;4991695;28;20026;-65
2022/09/02 09:06:40;;;;;;;12.35;3.10;;;32.90;87.20;;;;;;4992430;28;20029;-66
2022/09/02 09:09:34;;;;;;;17.48;2.70;;;32.90;87.20;;;;;;4990655;28;20034;-65
2022/09/02 09:12:13;;;;;;;24.42;2.88;;;32.90;87.50;;;;;;5010517;28;20107;-64
2022/09/02 09:14:55;;;;;;;18.27;2.80;;;32.70;87.70;;;;;;4996787;28;20391;-66
2022/09/02 09:17:51;;;;;;;10.32;2.65;;;32.70;88.30;;;;;;5010832;28;20034;-67
2022/09/02 09:20:21;;;;;;;10.85;2.42;;;32.70;88.70;;;;;;4987986;28;20030;-66
2022/09/02 09:22:50;;;;;;;8.43;2.50;;;32.60;88.40;;;;;;4992846;28;20065;-64
2022/09/02 09:25:18;;;;;;;17.67;2.85;;;32.60;88.90;;;;;;4977762;28;20030;-64
2022/09/02 09:27:47;;;;;;;16.20;2.38;;;32.70;89.20;;;;;;5009427;28;20033;-65
2022/09/02 09:30:14;;;;;;;13.57;2.60;;;32.60;89.60;;;;;;5010217;28;20515;-65
2022/09/02 09:32:46;;;;;;;18.15;2.67;;;32.50;89.90;;;;;;5010358;28;20482;-64
2022/09/02 09:35:15;;;;;;;13.52;2.13;;;32.60;90.20;;;;;;4996815;28;20397;-65
2022/09/02 09:37:47;;;;;;;17.95;2.65;;;32.50;90.10;;;;;;5010356;28;20468;-64
2022/09/02 09:40:20;;;;;;;14.88;2.55;;;32.50;90.40;;;;;;5010379;28;20075;-62
2022/09/02 09:43:11;;;;;;;17.83;2.40;;;32.50;90.50;;;;;;5010435;28;20021;-64
2022/09/02 09:45:40;;;;;;;9.63;2.33;;;32.40;90.80;;;;;;4981150;28;20806;-64
2022/09/02 09:48:21;;;;;;;9.02;2.05;;;32.40;91.00;;;;;;4977836;28;20042;-63
2022/09/02 09:50:55;;;;;;;16.00;2.42;;;32.40;91.20;;;;;;4995820;28;20029;-64
2022/09/02 09:53:27;;;;;;;19.83;2.63;;;32.40;91.50;;;;;;4992585;28;20033;-67
2022/09/02 09:56:01;;;;;;;18.10;2.65;;;32.40;91.70;;;;;;4992124;28;20030;-64
2022/09/02 09:58:41;;;;;;;14.23;2.15;;;32.40;91.70;;;;;;4991518;28;20017;-65
2022/09/02 10:01:16;;;;;;;14.98;2.90;;;32.30;91.70;;;;;;5004634;28;20026;-65
2022/09/02 10:03:48;;;;;;;21.90;3.20;;;32.30;91.80;;;;;;4991629;28;20025;-66
2022/09/02 10:06:23;;;;;;;12.70;2.85;;;32.30;91.70;;;;;;4990032;28;20388;-65
2022/09/02 10:08:58;;;;;;;21.52;3.15;;;32.30;91.80;;;;;;5009200;28;20448;-65
2022/09/02 10:11:33;;;;;;;21.77;3.53;;;32.30;91.90;;;;;;4991784;28;20034;-65
2022/09/02 10:14:10;;;;;;;14.63;2.30;;;32.30;92.20;;;;;;4990792;28;20026;-66
2022/09/02 10:16:56;;;;;;;19.58;3.17;;;32.30;92.60;;;;;;4990473;28;20025;-64
2022/09/02 10:19:40;;;;;;;18.73;2.80;;;32.20;93.10;;;;;;5011648;28;20040;-64
2022/09/02 10:22:32;;;;;;;17.92;2.58;;;32.20;93.30;;;;;;5003825;28;20045;-64
2022/09/02 10:25:23;;;;;;;15.32;3.00;;;32.10;93.50;;;;;;4984042;28;20027;-67
2022/09/02 10:27:59;;;;;;;24.40;3.50;;;32.10;93.80;;;;;;4986523;28;20058;-65
2022/09/02 10:30:27;;;;;;;20.63;3.58;;;32.10;94.40;;;;;;4987321;28;20354;-65
2022/09/02 10:33:09;;;;;;;24.83;3.78;;;32.00;94.70;;;;;;4987951;28;20093;-64
2022/09/02 10:36:01;;;;;;;20.58;3.20;;;32.00;95.00;;;;;;4987170;28;20038;-64
2022/09/02 10:38:42;;;;;;;11.95;2.80;;;31.90;95.40;;;;;;4990893;28;20037;-66
2022/09/02 10:41:27;;;;;;;20.75;3.00;;;31.90;95.90;;;;;;4988794;28;20030;-65
2022/09/02 10:44:10;;;;;;;17.83;3.25;;;31.80;96.70;;;;;;4987754;28;20503;-63
2022/09/02 10:47:09;;;;;;;27.70;3.63;;;31.80;97.00;;;;;;4986761;28;20084;-65
2022/09/02 10:50:08;;;;;;;27.38;3.53;;;31.80;97.60;;;;;;4948873;28;20035;-63
2022/09/02 10:53:05;;;;;;;22.85;3.25;;;31.70;97.90;;;;;;4951567;28;20041;-68
2022/09/02 10:55:43;;;;;;;18.87;3.20;;;31.80;98.20;;;;;;4989894;28;20366;-65
2022/09/02 10:58:29;;;;;;;21.48;3.00;;;31.80;98.30;;;;;;4986904;28;20480;-66
2022/09/02 11:00:56;;;;;;;20.50;2.72;;;31.80;98.40;;;;;;4988288;28;20121;-64
2022/09/02 11:03:23;;;;;;;30.33;3.25;;;31.80;98.30;;;;;;4987871;28;20073;-65
2022/09/02 11:05:52;;;;;;;15.23;2.50;;;31.80;98.70;;;;;;4991402;28;20034;-65
2022/09/02 11:08:32;;;;;;;15.90;2.63;;;31.80;98.40;;;;;;4987258;28;20033;-63
2022/09/02 11:11:28;;;;;;;19.33;2.72;;;31.70;98.50;;;;;;4987426;28;20030;-64
2022/09/02 11:14:26;;;;;;;14.55;2.88;;;31.70;98.60;;;;;;4987234;28;20131;-66
2022/09/02 11:17:29;;;;;;;22.55;3.88;;;31.70;98.60;;;;;;4987104;28;20026;-63
2022/09/02 11:20:07;;;;;;;13.80;2.75;;;31.70;98.90;;;;;;4987658;28;20030;-64
2022/09/02 11:22:49;;;;;;;23.33;2.90;;;31.70;98.50;;;;;;4986838;28;20125;-64
2022/09/02 11:25:36;;;;;;;18.42;2.90;;;31.70;98.60;;;;;;4988767;28;20026;-67
2022/09/02 11:28:32;;;;;;;23.17;2.80;;;31.70;98.70;;;;;;4987631;28;20030;-64
2022/09/02 11:31:17;;;;;;;14.38;2.38;;;31.70;99.10;;;;;;4987733;28;20041;-64
2022/09/02 11:34:04;;;;;;;11.27;2.45;;;31.70;98.90;;;;;;4986314;28;20027;-65
2022/09/02 11:36:36;;;;;;;13.93;2.20;;;31.70;99.00;;;;;;4988197;28;20085;-64
2022/09/02 11:39:16;;;;;;;16.08;2.85;;;31.60;99.10;;;;;;4989288;28;20030;-64
2022/09/02 11:42:40;;;;;;;10.65;2.40;;;31.60;99.30;;;;;;4991049;28;20037;-64
2022/09/02 11:45:27;;;;;;;12.85;2.38;;;31.60;99.40;;;;;;4918024;29;20068;-64
2022/09/02 11:48:19;;;;;;;14.00;2.20;;;31.60;99.30;;;;;;4931528;29;20122;-64
2022/09/02 11:50:58;;;;;;;10.43;2.42;;;31.60;99.30;;;;;;4929776;29;20039;-63
2022/09/02 11:53:31;;;;;;;12.38;2.40;;;31.60;99.40;;;;;;4931364;29;20546;-64
2022/09/02 11:56:13;;;;;;;12.82;2.17;;;31.60;99.40;;;;;;4898243;29;20411;-63
2022/09/02 11:58:42;;;;;;;18.83;2.90;;;31.60;99.50;;;;;;4903492;29;20027;-66
2022/09/02 12:01:14;;;;;;;18.42;2.83;;;31.60;99.50;;;;;;4906318;29;20146;-64
2022/09/02 12:03:46;;;;;;;17.90;2.83;;;31.60;99.70;;;;;;4915430;29;21508;-64
2022/09/02 12:06:21;;;;;;;12.88;2.80;;;31.50;99.90;;;;;;4913972;29;20187;-64
2022/09/02 12:08:48;;;;;;;10.02;2.75;;;31.50;99.90;;;;;;4897441;29;20487;-66
2022/09/02 12:11:40;;;;;;;10.93;2.38;;;31.60;99.90;;;;;;4916142;29;20043;-65
2022/09/02 12:14:25;;;;;;;11.02;2.53;;;31.60;99.80;;;;;;4929409;29;20098;-65
2022/09/02 12:17:01;;;;;;;17.13;2.78;;;31.60;99.90;;;;;;4988531;28;20030;-65
2022/09/02 12:19:39;;;;;;;19.73;4.50;;;31.60;99.60;;;;;;4991797;28;20050;-64
2022/09/02 12:22:14;;;;;;;13.18;2.70;;;31.60;99.30;;;;;;4990965;28;20042;-67
2022/09/02 12:24:55;;;;;;;11.88;2.75;;;31.60;98.70;;;;;;4990521;28;20033;-63
2022/09/02 12:27:28;;;;;;;12.73;3.20;;;31.60;98.50;;;;;;4991491;28;20515;-63
2022/09/02 12:29:57;;;;;;;14.35;2.90;;;31.60;98.50;;;;;;4990848;28;20048;-63
2022/09/02 12:32:45;;;;;;;16.48;3.42;;;31.70;98.30;;;;;;4989855;28;20515;-64
2022/09/02 12:35:30;;;;;;;14.85;3.70;;;31.70;98.40;;;;;;4989439;28;20026;-64
2022/09/02 12:38:17;;;;;;;19.00;4.68;;;31.70;98.70;;;;;;4991309;28;20025;-64
2022/09/02 12:41:11;;;;;;;13.18;3.13;;;31.70;99.40;;;;;;4990376;28;20027;-63
2022/09/02 12:44:10;;;;;;;16.95;2.65;;;31.60;99.90;;;;;;4990369;28;20023;-64
2022/09/02 12:46:43;;;;;;;16.77;3.38;;;31.60;99.90;;;;;;4971141;28;20492;-64
2022/09/02 12:49:10;;;;;;;15.73;2.85;;;31.60;99.90;;;;;;4989811;28;20105;-64
2022/09/02 12:51:56;;;;;;;10.48;2.53;;;31.60;99.90;;;;;;4990371;28;20081;-66
2022/09/02 12:54:37;;;;;;;15.90;3.40;;;31.60;99.90;;;;;;4990386;28;20081;-63
2022/09/02 12:57:05;;;;;;;17.13;2.78;;;31.50;99.90;;;;;;4989629;28;20616;-63
2022/09/02 12:59:34;;;;;;;18.63;3.05;;;31.50;99.90;;;;;;4976431;28;20037;-63
2022/09/02 13:02:36;;;;;;;10.30;2.97;;;31.50;99.90;;;;;;4988526;28;20033;-63
2022/09/02 13:05:46;;;;;;;13.05;2.85;;;31.50;99.90;;;;;;4985128;28;20124;-64